createdAt,value
2022-10-06T00:00:15.208Z,93.89
2022-10-06T00:05:17.885Z,93.76
2022-10-06T00:10:20.490Z,94.33
2022-10-06T00:15:29.379Z,93.88
2022-10-06T00:20:33.186Z,93.77
2022-10-06T00:25:36.294Z,94.00
2022-10-06T00:30:39.029Z,94.55
2022-10-06T00:35:42.278Z,94.75
2022-10-06T00:40:50.388Z,94.47
2022-10-06T00:45:53.224Z,93.92
2022-10-06T00:50:58.405Z,94.23
2022-10-06T00:56:01.013Z,94.07
2022-10-06T01:01:04.287Z,93.92
2022-10-06T01:06:07.736Z,94.00
2022-10-06T01:11:15.692Z,94.57
2022-10-06T01:16:27.012Z,94.13
2022-10-06T01:21:44.898Z,94.59
2022-10-06T01:26:51.948Z,94.41
2022-10-06T01:31:55.634Z,93.87
2022-10-06T01:36:58.321Z,93.93
2022-10-06T01:42:02.424Z,94.17
2022-10-06T01:47:06.891Z,94.14
2022-10-06T01:52:09.719Z,94.84
2022-10-06T01:57:12.337Z,94.44
2022-10-06T02:02:15.036Z,94.72
2022-10-06T02:07:17.752Z,94.77
2022-10-06T02:12:22.024Z,95.23
2022-10-06T02:17:24.999Z,94.87
2022-10-06T02:22:28.413Z,94.97
2022-10-06T02:27:31.124Z,94.86
2022-10-06T02:32:37.390Z,94.56
2022-10-06T02:37:41.676Z,94.56
2022-10-06T02:42:46.990Z,95.29
2022-10-06T02:47:56.882Z,95.25
2022-10-06T02:52:59.457Z,95.17
2022-10-06T02:58:03.724Z,94.90
2022-10-06T03:03:06.441Z,95.35
2022-10-06T03:08:10.824Z,95.74
2022-10-06T03:13:13.622Z,95.37
2022-10-06T03:18:16.247Z,95.22
2022-10-06T03:23:19.314Z,94.82
2022-10-06T03:28:22.959Z,94.28
2022-10-06T03:33:25.792Z,94.21
2022-10-06T03:38:31.416Z,94.22
2022-10-06T03:43:35.831Z,94.25
2022-10-06T03:48:38.927Z,94.68
2022-10-06T03:53:47.332Z,94.59
2022-10-06T03:59:00.276Z,94.37
2022-10-06T04:04:05.145Z,95.02
2022-10-06T04:09:15.374Z,94.88
2022-10-06T04:14:19.002Z,94.51
2022-10-06T04:19:22.208Z,94.86
2022-10-06T04:24:28.060Z,94.37
2022-10-06T04:29:32.810Z,94.24
2022-10-06T04:34:35.597Z,93.86
2022-10-06T04:39:39.069Z,93.99
2022-10-06T04:44:42.809Z,93.86
2022-10-06T04:49:45.718Z,94.62
2022-10-06T04:54:49.203Z,94.10
2022-10-06T05:00:14.784Z,93.83
2022-10-06T05:05:20.100Z,94.05
2022-10-06T05:10:23.916Z,94.19
2022-10-06T05:15:28.288Z,94.13
2022-10-06T05:20:31.288Z,94.38
2022-10-06T05:25:34.404Z,93.84
2022-10-06T05:30:37.840Z,93.39
2022-10-06T05:35:51.733Z,93.04
2022-10-06T05:41:06.773Z,93.44
2022-10-06T05:46:23.863Z,92.99
2022-10-06T05:51:31.439Z,92.84
2022-10-06T05:56:38.385Z,92.36
2022-10-06T06:01:43.096Z,91.82
2022-10-06T06:06:58.524Z,91.61
2022-10-06T06:12:02.786Z,91.13
2022-10-06T06:17:14.030Z,90.82
2022-10-06T06:22:16.822Z,91.30
2022-10-06T06:27:21.597Z,92.14
2022-10-06T06:32:25.109Z,91.27
2022-10-06T06:37:31.477Z,90.90
2022-10-06T06:42:35.305Z,90.34
2022-10-06T06:48:02.507Z,88.95
2022-10-06T06:53:07.141Z,88.28
2022-10-06T06:58:12.774Z,87.89
2022-10-06T07:03:38.459Z,87.24
2022-10-06T07:08:43.650Z,86.00
2022-10-06T07:13:50.791Z,85.91
2022-10-06T07:19:12.385Z,86.45
2022-10-06T07:24:34.385Z,85.61
2022-10-06T07:29:37.230Z,85.00
2022-10-06T07:39:49.780Z,85.23
2022-10-06T07:45:11.606Z,85.25
2022-10-06T07:50:16.193Z,85.67
2022-10-06T07:55:19.167Z,86.19
2022-10-06T08:00:53.107Z,85.88
2022-10-06T08:06:00.665Z,85.50
2022-10-06T08:11:04.927Z,86.43
2022-10-06T08:16:19.836Z,86.78
2022-10-06T08:21:35.694Z,85.49
2022-10-06T08:26:38.976Z,85.63
2022-10-06T08:31:42.225Z,84.95
2022-10-06T08:37:08.649Z,85.44
2022-10-06T08:42:50.605Z,85.27
2022-10-06T08:48:21.237Z,85.43
2022-10-06T08:53:23.871Z,85.81
2022-10-06T08:58:58.745Z,85.92
2022-10-06T09:04:05.376Z,85.72
2022-10-06T09:09:35.783Z,85.32
2022-10-06T09:14:44.538Z,86.19
2022-10-06T09:20:02.320Z,85.77
2022-10-06T09:25:17.836Z,85.67
2022-10-06T09:30:20.550Z,85.26
2022-10-06T09:35:25.822Z,84.63
2022-10-06T09:40:53.820Z,84.44
2022-10-06T09:46:17.836Z,84.67
2022-10-06T09:51:20.459Z,84.16
2022-10-06T09:56:23.242Z,83.32
2022-10-06T10:01:28.754Z,81.82
2022-10-06T10:06:35.138Z,80.54
2022-10-06T10:11:56.878Z,78.25
2022-10-06T10:17:07.674Z,77.25
2022-10-06T10:22:23.414Z,76.25
2022-10-06T10:28:04.014Z,76.26
2022-10-06T10:33:16.955Z,76.89
2022-10-06T10:38:25.084Z,77.39
2022-10-06T10:43:35.348Z,79.18
2022-10-06T10:49:07.276Z,79.20
2022-10-06T10:54:14.027Z,80.20
2022-10-06T10:59:30.463Z,79.21
2022-10-06T11:04:33.233Z,79.06
2022-10-06T11:09:51.953Z,78.43
2022-10-06T11:15:20.355Z,77.34
2022-10-06T11:20:47.217Z,78.70
2022-10-06T11:26:09.944Z,79.72
2022-10-06T11:31:21.789Z,79.93
2022-10-06T11:36:47.173Z,79.88
2022-10-06T11:41:58.527Z,79.30
2022-10-06T11:47:09.605Z,79.34
2022-10-06T11:52:12.141Z,78.63
2022-10-06T11:57:27.975Z,78.53
2022-10-06T12:02:33.375Z,78.61
2022-10-06T12:07:54.696Z,79.41
2022-10-06T12:14:26.270Z,80.54
2022-10-06T12:19:02.780Z,79.71
2022-10-06T12:24:45.728Z,79.84
2022-10-06T12:29:59.920Z,80.13
2022-10-06T12:35:16.441Z,80.11
2022-10-06T12:40:44.435Z,80.43
2022-10-06T12:45:47.036Z,80.11
2022-10-06T12:50:55.705Z,80.93
2022-10-06T12:56:03.691Z,81.11
2022-10-06T13:01:11.918Z,81.74
2022-10-06T13:06:15.267Z,82.58
2022-10-06T13:11:27.390Z,82.73
2022-10-06T13:16:33.548Z,82.57
2022-10-06T13:21:36.209Z,82.38
2022-10-06T13:26:40.352Z,81.91
2022-10-06T13:31:51.868Z,81.41
2022-10-06T13:36:56.848Z,82.57
2022-10-06T13:42:03.754Z,82.56
2022-10-06T13:47:18.628Z,82.81
2022-10-06T13:52:38.326Z,83.93
2022-10-06T13:57:49.315Z,84.86
2022-10-06T14:02:56.286Z,84.72
2022-10-06T14:08:02.765Z,85.43
2022-10-06T14:13:15.867Z,84.83
2022-10-06T14:18:26.333Z,84.64
2022-10-06T14:23:40.220Z,84.76
2022-10-06T14:28:48.905Z,84.58
2022-10-06T14:33:53.261Z,84.83
2022-10-06T14:38:57.286Z,84.77
2022-10-06T14:44:03.012Z,84.98
2022-10-06T14:49:11.318Z,84.97
2022-10-06T14:54:14.825Z,84.98
2022-10-06T14:59:18.259Z,85.11
2022-10-06T15:04:26.576Z,85.24
2022-10-06T15:09:31.304Z,85.16
2022-10-06T15:14:40.145Z,85.21
2022-10-06T15:19:42.744Z,85.20
2022-10-06T15:24:48.837Z,84.97
2022-10-06T15:29:51.490Z,84.77
2022-10-06T15:34:55.304Z,85.42
2022-10-06T15:39:58.404Z,85.90
2022-10-06T15:45:06.570Z,85.92
2022-10-06T15:50:11.368Z,86.13
2022-10-06T15:55:15.629Z,86.01
2022-10-06T16:00:18.418Z,86.66
2022-10-06T16:05:43.749Z,87.02
2022-10-06T16:10:50.081Z,86.61
2022-10-06T16:15:54.120Z,86.74
2022-10-06T16:20:56.855Z,87.21
2022-10-06T16:26:02.083Z,87.15
2022-10-06T16:31:06.302Z,87.04
2022-10-06T16:36:09.886Z,87.11
2022-10-06T16:41:12.558Z,87.27
2022-10-06T16:46:21.273Z,87.17
2022-10-06T16:51:29.416Z,87.20
2022-10-06T16:56:41.267Z,87.29
2022-10-06T17:01:44.766Z,87.57
2022-10-06T17:06:52.742Z,87.86
2022-10-06T17:12:01.190Z,87.46
2022-10-06T17:17:04.905Z,87.94
2022-10-06T17:22:07.451Z,87.77
2022-10-06T17:27:10.409Z,88.40
2022-10-06T17:32:12.946Z,89.90
2022-10-06T17:37:17.414Z,89.63
2022-10-06T17:42:19.971Z,89.34
2022-10-06T17:47:22.602Z,89.37
2022-10-06T17:52:25.256Z,89.50
2022-10-06T17:57:29.765Z,89.98
2022-10-06T18:02:33.265Z,90.83
2022-10-06T18:07:38.390Z,91.87
2022-10-06T18:12:41.308Z,92.70
2022-10-06T18:17:44.138Z,92.79
2022-10-06T18:22:48.641Z,93.35
2022-10-06T18:27:52.165Z,93.09
2022-10-06T18:38:18.061Z,93.43
2022-10-06T18:43:20.690Z,93.85
2022-10-06T18:48:41.638Z,94.96
2022-10-06T18:53:44.453Z,95.32
2022-10-06T18:58:47.702Z,95.10
2022-10-06T19:03:50.639Z,95.54
2022-10-06T19:09:00.848Z,95.91
2022-10-06T19:14:03.612Z,96.78
2022-10-06T19:19:10.847Z,96.72
2022-10-06T19:24:16.368Z,97.01
2022-10-06T19:29:23.724Z,96.63
2022-10-06T19:34:26.813Z,96.67
2022-10-06T19:39:32.538Z,96.48
2022-10-06T19:44:42.597Z,96.79
2022-10-06T19:49:45.616Z,96.53
2022-10-06T19:54:48.193Z,96.37
2022-10-06T19:59:51.097Z,96.42
2022-10-06T20:04:53.685Z,95.97
2022-10-06T20:09:56.234Z,95.84
2022-10-06T20:14:58.874Z,95.46
2022-10-06T20:20:03.313Z,95.37
2022-10-06T20:25:07.495Z,96.13
2022-10-06T20:30:10.878Z,95.69
2022-10-06T20:35:15.098Z,95.79
2022-10-06T20:40:36.321Z,95.55
2022-10-06T20:45:38.901Z,96.37
2022-10-06T20:50:41.601Z,96.49
2022-10-06T20:55:51.701Z,96.57
2022-10-06T21:00:54.601Z,96.29
2022-10-06T21:05:57.358Z,96.00
2022-10-06T21:11:02.532Z,95.66
2022-10-06T21:16:05.335Z,95.84
2022-10-06T21:21:11.408Z,96.06
2022-10-06T21:26:19.117Z,95.80
2022-10-06T21:31:24.819Z,96.17
2022-10-06T21:36:31.721Z,96.42
2022-10-06T21:41:39.009Z,97.50
2022-10-06T21:46:49.483Z,97.75
2022-10-06T21:51:54.482Z,98.90
2022-10-06T21:56:58.146Z,98.29
2022-10-06T22:02:00.874Z,98.49
2022-10-06T22:07:03.444Z,98.30
2022-10-06T22:12:06.072Z,98.40
2022-10-06T22:17:08.645Z,98.53
2022-10-06T22:22:11.232Z,98.73
2022-10-06T22:27:14.304Z,98.88
2022-10-06T22:32:17.112Z,99.05
2022-10-06T22:37:19.628Z,98.85
2022-10-06T22:42:22.147Z,99.39
2022-10-06T22:47:24.699Z,99.48
2022-10-06T22:52:27.200Z,99.21
2022-10-06T22:57:29.806Z,99.12
2022-10-06T23:02:32.571Z,99.34
2022-10-06T23:07:35.490Z,99.07
2022-10-06T23:12:38.219Z,98.92
2022-10-06T23:17:41.963Z,98.89
2022-10-06T23:22:44.971Z,99.08
2022-10-06T23:27:47.787Z,98.32
2022-10-06T23:32:50.403Z,98.52
2022-10-06T23:37:53.041Z,98.49
2022-10-06T23:42:55.721Z,98.61
2022-10-06T23:48:00.167Z,98.77
2022-10-06T23:53:02.831Z,98.92
2022-10-06T23:58:05.394Z,98.95
